createdAt,value
2023-01-17T00:02:21.310Z,50.92
2023-01-17T00:05:07.354Z,41.50
2023-01-17T00:07:53.327Z,51.95
2023-01-17T00:10:27.880Z,51.22
2023-01-17T00:12:59.375Z,48.45
2023-01-17T00:15:30.710Z,46.30
2023-01-17T00:17:58.480Z,53.70
2023-01-17T00:20:49.324Z,45.28
2023-01-17T00:23:45.740Z,46.90
2023-01-17T00:26:18.792Z,44.45
2023-01-17T00:28:47.730Z,44.33
2023-01-17T00:31:17.859Z,45.42
2023-01-17T00:33:45.451Z,49.75
2023-01-17T00:36:13.410Z,43.78
2023-01-17T00:38:41.090Z,36.20
2023-01-17T00:41:14.613Z,45.95
2023-01-17T00:44:00.638Z,49.15
2023-01-17T00:46:46.710Z,52.42
2023-01-17T00:49:32.786Z,38.33
2023-01-17T00:52:19.356Z,42.83
2023-01-17T00:55:05.229Z,42.95
2023-01-17T00:57:51.096Z,49.25
2023-01-17T01:00:37.625Z,39.78
2023-01-17T01:03:30.959Z,49.70
2023-01-17T01:06:17.474Z,48.10
2023-01-17T01:09:03.555Z,45.58
2023-01-17T01:11:49.581Z,52.65
2023-01-17T01:14:35.607Z,47.08
2023-01-17T01:17:21.571Z,46.67
2023-01-17T01:20:07.677Z,49.63
2023-01-17T01:22:53.649Z,53.65
2023-01-17T01:25:39.541Z,42.72
2023-01-17T01:28:32.391Z,42.75
2023-01-17T01:31:23.246Z,42.63
2023-01-17T01:33:54.020Z,48.25
2023-01-17T01:36:21.481Z,47.40
2023-01-17T01:38:50.156Z,43.15
2023-01-17T01:41:17.355Z,47.95
2023-01-17T01:43:53.060Z,49.50
2023-01-17T01:46:27.082Z,45.10
2023-01-17T01:49:17.626Z,42.13
2023-01-17T01:51:56.297Z,44.28
2023-01-17T01:54:58.056Z,45.05
2023-01-17T01:57:34.795Z,46.38
2023-01-17T02:00:35.744Z,45.63
2023-01-17T02:03:23.539Z,38.50
2023-01-17T02:05:51.778Z,44.28
2023-01-17T02:08:23.223Z,41.03
2023-01-17T02:10:51.243Z,41.58
2023-01-17T02:13:20.862Z,35.80
2023-01-17T02:16:39.224Z,42.03
2023-01-17T02:19:37.396Z,45.05
2023-01-17T02:23:19.611Z,42.20
2023-01-17T02:26:34.451Z,35.97
2023-01-17T02:30:05.421Z,47.90
2023-01-17T02:33:17.399Z,47.60
2023-01-17T02:36:12.627Z,42.13
2023-01-17T02:39:09.514Z,40.90
2023-01-17T02:41:53.837Z,47.50
2023-01-17T02:44:21.825Z,50.33
2023-01-17T02:46:58.106Z,45.50
2023-01-17T02:49:31.620Z,53.72
2023-01-17T02:52:34.303Z,42.42
2023-01-17T02:55:19.113Z,47.10
2023-01-17T02:58:39.767Z,43.38
2023-01-17T03:01:21.765Z,52.03
2023-01-17T03:04:12.987Z,38.78
2023-01-17T03:06:59.056Z,43.75
2023-01-17T03:09:28.046Z,45.50
2023-01-17T03:11:55.916Z,43.28
2023-01-17T03:14:23.037Z,35.17
2023-01-17T03:16:50.495Z,35.08
2023-01-17T03:19:17.626Z,36.10
2023-01-17T03:21:44.748Z,36.45
2023-01-17T03:24:11.935Z,39.20
2023-01-17T03:26:39.152Z,50.03
2023-01-17T03:29:06.335Z,47.05
2023-01-17T03:31:33.528Z,38.22
2023-01-17T03:34:00.690Z,47.28
2023-01-17T03:36:28.031Z,46.88
2023-01-17T03:38:55.161Z,47.97
2023-01-17T03:41:22.341Z,44.08
2023-01-17T03:43:49.536Z,42.08
2023-01-17T03:46:34.858Z,48.22
2023-01-17T03:49:02.083Z,45.28
2023-01-17T03:51:29.263Z,50.33
2023-01-17T03:53:56.391Z,49.65
2023-01-17T03:56:23.558Z,57.17
2023-01-17T03:58:51.494Z,41.47
2023-01-17T04:01:19.042Z,34.72
2023-01-17T04:03:46.303Z,51.97
2023-01-17T04:06:13.570Z,60.75
2023-01-17T04:08:41.558Z,37.72
2023-01-17T04:11:08.817Z,52.63
2023-01-17T04:13:35.954Z,40.85
2023-01-17T04:16:04.352Z,45.53
2023-01-17T04:18:31.566Z,53.85
2023-01-17T04:20:58.734Z,53.70
2023-01-17T04:23:26.079Z,53.20
2023-01-17T04:25:53.209Z,40.00
2023-01-17T04:28:20.424Z,60.17
2023-01-17T04:30:48.587Z,45.30
2023-01-17T04:33:15.744Z,44.85
2023-01-17T04:35:42.886Z,47.70
2023-01-17T04:38:10.053Z,56.72
2023-01-17T04:40:37.213Z,45.28
2023-01-17T04:43:04.320Z,56.15
2023-01-17T04:45:31.524Z,46.22
2023-01-17T04:48:05.517Z,50.70
2023-01-17T04:50:33.960Z,39.40
2023-01-17T04:53:01.648Z,48.70
2023-01-17T04:55:28.786Z,40.63
2023-01-17T04:57:56.121Z,52.00
2023-01-17T05:00:24.306Z,53.10
2023-01-17T05:02:52.084Z,57.47
2023-01-17T05:05:19.315Z,71.60
2023-01-17T05:07:57.211Z,48.05
2023-01-17T05:10:25.543Z,44.38
2023-01-17T05:12:58.943Z,39.78
2023-01-17T05:15:27.093Z,45.65
2023-01-17T05:17:55.078Z,51.30
2023-01-17T05:20:25.451Z,42.13
2023-01-17T05:22:57.462Z,57.08
2023-01-17T05:25:28.540Z,47.80
2023-01-17T05:27:56.495Z,66.90
2023-01-17T05:30:24.390Z,48.00
2023-01-17T05:32:57.984Z,54.05
2023-01-17T05:35:34.791Z,59.28
2023-01-17T05:38:02.302Z,73.97
2023-01-17T05:40:32.920Z,71.00
2023-01-17T05:43:03.248Z,65.80
2023-01-17T05:45:33.255Z,66.28
2023-01-17T05:48:01.472Z,72.50
2023-01-17T05:50:38.433Z,70.57
2023-01-17T05:53:13.164Z,66.15
2023-01-17T05:55:41.582Z,55.75
2023-01-17T05:58:19.123Z,59.42
2023-01-17T06:00:47.580Z,64.47
2023-01-17T06:03:16.900Z,66.32
2023-01-17T06:05:44.911Z,57.53
2023-01-17T06:08:12.204Z,63.53
2023-01-17T06:10:40.585Z,60.75
2023-01-17T06:13:12.617Z,63.92
2023-01-17T06:15:40.337Z,68.53
2023-01-17T06:18:14.711Z,56.85
2023-01-17T06:20:42.789Z,51.20
2023-01-17T06:23:15.009Z,63.63
2023-01-17T06:25:46.710Z,61.20
2023-01-17T06:28:20.276Z,61.33
2023-01-17T06:30:48.265Z,55.75
2023-01-17T06:33:16.472Z,55.45
2023-01-17T06:35:52.435Z,55.17
2023-01-17T06:38:20.542Z,54.88
2023-01-17T06:40:48.506Z,66.13
2023-01-17T06:43:15.916Z,61.13
2023-01-17T06:45:43.116Z,62.22
2023-01-17T06:48:10.405Z,60.47
2023-01-17T06:50:38.050Z,56.17
2023-01-17T06:53:07.148Z,62.90
2023-01-17T06:55:36.989Z,56.88
2023-01-17T06:58:04.300Z,59.78
2023-01-17T07:00:35.018Z,60.70
2023-01-17T07:03:02.597Z,60.63
2023-01-17T07:05:29.903Z,58.30
2023-01-17T07:07:58.076Z,57.15
2023-01-17T07:10:25.264Z,56.38
2023-01-17T07:12:58.111Z,60.75
2023-01-17T07:15:25.351Z,51.55
2023-01-17T07:17:52.525Z,55.20
2023-01-17T07:20:19.688Z,60.85
2023-01-17T07:22:46.920Z,56.05
2023-01-17T07:25:14.224Z,53.38
2023-01-17T07:27:41.367Z,53.63
2023-01-17T07:30:10.379Z,58.75
2023-01-17T07:32:37.677Z,66.65
2023-01-17T07:35:06.464Z,51.97
2023-01-17T07:40:02.477Z,54.40
2023-01-17T07:42:32.225Z,58.75
2023-01-17T07:45:00.758Z,53.20
2023-01-17T07:47:27.920Z,52.55
2023-01-17T07:49:55.176Z,52.00
2023-01-17T07:52:22.417Z,53.67
2023-01-17T07:54:49.797Z,55.25
2023-01-17T07:57:16.942Z,50.28
2023-01-17T07:59:44.479Z,53.88
2023-01-17T08:02:19.793Z,50.25
2023-01-17T08:04:48.069Z,51.50
2023-01-17T08:07:15.944Z,54.50
2023-01-17T08:09:44.702Z,59.60
2023-01-17T08:12:11.883Z,54.17
2023-01-17T08:14:39.108Z,59.70
2023-01-17T08:17:11.133Z,46.97
2023-01-17T08:19:38.454Z,49.45
2023-01-17T08:22:05.757Z,54.60
2023-01-17T08:24:32.888Z,57.78
2023-01-17T08:27:00.368Z,59.28
2023-01-17T08:29:27.579Z,59.47
2023-01-17T08:31:55.239Z,61.47
2023-01-17T08:34:23.462Z,63.05
2023-01-17T08:36:53.937Z,57.25
2023-01-17T08:39:21.979Z,52.17
2023-01-17T08:41:49.167Z,56.75
2023-01-17T08:44:16.380Z,60.22
2023-01-17T08:46:44.213Z,65.32
2023-01-17T08:49:12.594Z,55.00
2023-01-17T08:51:40.355Z,61.67
2023-01-17T08:54:09.700Z,50.95
2023-01-17T08:56:36.937Z,59.17
2023-01-17T08:59:04.278Z,47.53
2023-01-17T09:01:40.542Z,48.78
2023-01-17T09:04:09.782Z,49.88
2023-01-17T09:06:45.319Z,50.97
2023-01-17T09:09:13.653Z,50.60
2023-01-17T09:11:41.047Z,51.30
2023-01-17T09:14:08.659Z,44.22
2023-01-17T09:16:35.903Z,45.85
2023-01-17T09:19:03.234Z,52.13
2023-01-17T09:21:30.741Z,41.88
2023-01-17T09:23:57.915Z,49.20
2023-01-17T09:26:29.337Z,48.47
2023-01-17T09:28:58.541Z,58.83
2023-01-17T09:31:27.119Z,52.47
2023-01-17T09:33:56.882Z,43.95
2023-01-17T09:36:28.773Z,47.33
2023-01-17T09:38:58.623Z,60.60
2023-01-17T09:41:43.956Z,52.13
2023-01-17T09:44:42.293Z,47.13
2023-01-17T09:47:24.692Z,53.30
2023-01-17T09:49:56.967Z,42.78
2023-01-17T09:52:25.122Z,40.38
2023-01-17T09:54:53.338Z,44.70
2023-01-17T09:58:17.827Z,52.60
2023-01-17T10:01:18.606Z,44.53
2023-01-17T10:04:20.398Z,36.92
2023-01-17T10:07:33.562Z,44.15
2023-01-17T10:10:31.494Z,44.00
2023-01-17T10:13:12.504Z,39.20
2023-01-17T10:19:16.466Z,31.27
2023-01-17T10:22:36.659Z,36.15
2023-01-17T10:25:28.259Z,43.08
2023-01-17T10:28:14.733Z,31.90
2023-01-17T10:30:58.400Z,28.33
2023-01-17T10:33:36.221Z,25.58
2023-01-17T10:36:20.484Z,27.90
2023-01-17T10:39:02.684Z,21.80
2023-01-17T10:41:38.467Z,15.20
2023-01-17T10:44:58.339Z,16.92
2023-01-17T10:47:29.197Z,15.35
2023-01-17T10:50:01.804Z,14.00
2023-01-17T10:52:53.331Z,11.95
2023-01-17T10:55:48.943Z,14.80
2023-01-17T10:58:16.220Z,11.95
2023-01-17T11:00:48.476Z,14.07
2023-01-17T11:03:20.834Z,13.48
2023-01-17T11:06:21.394Z,12.65
2023-01-17T11:09:05.232Z,10.43
2023-01-17T11:11:35.647Z,11.07
2023-01-17T11:14:25.752Z,12.40
2023-01-17T11:17:06.342Z,13.60
2023-01-17T11:19:38.544Z,12.40
2023-01-17T11:22:07.419Z,16.45
2023-01-17T11:27:35.488Z,9.55
2023-01-17T11:30:20.455Z,10.30
2023-01-17T11:33:08.499Z,11.70
2023-01-17T11:35:44.286Z,10.00
2023-01-17T11:38:24.567Z,9.48
2023-01-17T11:41:15.990Z,8.88
2023-01-17T11:43:55.612Z,8.63
2023-01-17T11:46:23.989Z,6.00
2023-01-17T11:49:01.041Z,7.72
2023-01-17T11:51:40.213Z,10.73
2023-01-17T11:54:27.651Z,8.63
2023-01-17T11:57:02.451Z,9.48
2023-01-17T11:59:43.214Z,8.07
2023-01-17T12:03:27.489Z,9.05
2023-01-17T12:06:04.075Z,8.35
2023-01-17T12:08:58.744Z,8.80
2023-01-17T12:12:41.659Z,8.80
2023-01-17T12:15:54.873Z,9.32
2023-01-17T12:18:42.915Z,7.63
2023-01-17T12:21:51.493Z,9.52
2023-01-17T12:24:55.937Z,8.05
2023-01-17T12:28:10.080Z,10.23
2023-01-17T12:31:29.583Z,11.88
2023-01-17T12:34:26.330Z,5.13
2023-01-17T12:37:08.247Z,8.23
2023-01-17T12:39:46.056Z,8.38
2023-01-17T12:42:22.836Z,8.77
2023-01-17T12:45:20.181Z,9.23
2023-01-17T12:47:57.519Z,8.13
2023-01-17T12:50:37.217Z,11.25
2023-01-17T12:53:37.974Z,8.45
2023-01-17T12:56:16.362Z,9.60
2023-01-17T12:58:51.473Z,7.72
2023-01-17T13:01:35.386Z,10.70
2023-01-17T13:04:46.917Z,9.80
2023-01-17T13:07:55.481Z,11.18
2023-01-17T13:10:32.108Z,12.05
2023-01-17T13:13:15.587Z,13.32
2023-01-17T13:15:44.168Z,12.55
2023-01-17T13:18:22.801Z,12.55
2023-01-17T13:21:31.771Z,12.85
2023-01-17T13:24:05.985Z,12.10
2023-01-17T13:26:56.579Z,10.50
2023-01-17T13:29:41.614Z,11.10
2023-01-17T13:33:04.660Z,11.65
2023-01-17T13:35:43.558Z,11.93
2023-01-17T13:39:05.478Z,12.95
2023-01-17T13:41:46.241Z,10.75
2023-01-17T13:44:21.457Z,10.65
2023-01-17T13:47:18.733Z,10.73
2023-01-17T13:49:56.221Z,11.30
2023-01-17T13:52:26.147Z,11.00
2023-01-17T13:55:04.358Z,13.00
2023-01-17T13:57:42.015Z,9.63
2023-01-17T14:00:49.227Z,9.32
2023-01-17T14:03:53.915Z,10.38
2023-01-17T14:06:36.258Z,11.05
2023-01-17T14:09:44.908Z,9.70
2023-01-17T14:12:11.907Z,10.23
2023-01-17T14:14:41.987Z,12.20
2023-01-17T14:17:25.796Z,11.82
2023-01-17T14:20:09.331Z,10.00
2023-01-17T14:22:50.547Z,9.07
2023-01-17T14:25:41.457Z,8.20
2023-01-17T14:28:22.343Z,9.80
2023-01-17T14:30:55.873Z,9.98
2023-01-17T14:33:39.827Z,11.23
2023-01-17T14:36:27.962Z,10.77
2023-01-17T14:38:55.143Z,11.38
2023-01-17T14:41:28.409Z,11.45
2023-01-17T14:43:56.043Z,13.90
2023-01-17T14:46:32.330Z,10.60
2023-01-17T14:49:24.192Z,9.43
2023-01-17T14:52:06.370Z,11.18
2023-01-17T14:54:33.723Z,10.90
2023-01-17T14:57:29.421Z,8.65
2023-01-17T15:00:19.802Z,10.27
2023-01-17T15:02:49.101Z,10.88
2023-01-17T15:05:23.497Z,8.75
2023-01-17T15:07:55.105Z,10.48
2023-01-17T15:10:34.476Z,9.52
2023-01-17T15:13:09.541Z,10.55
2023-01-17T15:15:40.007Z,9.95
2023-01-17T15:18:26.620Z,10.20
2023-01-17T15:21:29.952Z,8.88
2023-01-17T15:24:08.153Z,10.40
2023-01-17T15:26:45.968Z,9.38
2023-01-17T15:29:31.109Z,10.98
2023-01-17T15:32:03.491Z,10.95
2023-01-17T15:34:47.060Z,9.98
2023-01-17T15:37:36.430Z,10.00
2023-01-17T15:40:21.527Z,8.57
2023-01-17T15:43:00.984Z,12.10
2023-01-17T15:45:33.852Z,11.60
2023-01-17T15:48:37.134Z,11.73
2023-01-17T15:51:04.984Z,11.63
2023-01-17T15:53:41.510Z,8.68
2023-01-17T15:56:32.467Z,9.98
2023-01-17T15:59:31.078Z,9.88
2023-01-17T16:01:59.302Z,13.07
2023-01-17T16:04:35.963Z,8.82
2023-01-17T16:07:20.948Z,11.73
2023-01-17T16:09:49.179Z,9.68
2023-01-17T16:12:16.385Z,8.38
2023-01-17T16:14:59.505Z,8.23
2023-01-17T16:17:31.705Z,8.80
2023-01-17T16:19:59.568Z,9.75
2023-01-17T16:22:27.169Z,7.32
2023-01-17T16:24:58.875Z,11.57
2023-01-17T16:27:26.010Z,8.57
2023-01-17T16:29:54.600Z,9.85
2023-01-17T16:32:23.492Z,10.52
2023-01-17T16:34:51.041Z,8.07
2023-01-17T16:37:18.197Z,10.82
2023-01-17T16:39:46.277Z,9.35
2023-01-17T16:42:13.404Z,9.18
2023-01-17T16:44:40.615Z,7.72
2023-01-17T16:47:07.773Z,9.63
2023-01-17T16:49:34.894Z,10.20
2023-01-17T16:52:02.189Z,8.88
2023-01-17T16:54:29.480Z,11.70
2023-01-17T16:56:56.645Z,7.35
2023-01-17T16:59:23.898Z,11.48
2023-01-17T17:01:52.945Z,9.60
2023-01-17T17:04:20.280Z,32.13
2023-01-17T17:06:47.476Z,10.00
2023-01-17T17:09:14.712Z,18.90
2023-01-17T17:11:42.596Z,8.60
2023-01-17T17:14:09.794Z,9.63
2023-01-17T17:16:37.033Z,13.52
2023-01-17T17:19:07.564Z,9.90
2023-01-17T17:21:37.518Z,9.38
2023-01-17T17:24:05.558Z,8.50
2023-01-17T17:26:36.879Z,10.10
2023-01-17T17:29:14.913Z,9.43
2023-01-17T17:31:43.652Z,9.20
2023-01-17T17:34:14.490Z,6.63
2023-01-17T17:36:42.314Z,9.77
2023-01-17T17:39:17.340Z,8.25
2023-01-17T17:44:16.138Z,11.85
2023-01-17T17:46:43.428Z,10.60
2023-01-17T17:49:10.703Z,14.85
2023-01-17T17:51:40.240Z,9.27
2023-01-17T17:54:12.348Z,10.77
2023-01-17T17:56:40.621Z,11.45
2023-01-17T17:59:09.787Z,12.52
2023-01-17T18:01:40.954Z,9.60
2023-01-17T18:04:09.382Z,14.15
2023-01-17T18:06:38.492Z,10.85
2023-01-17T18:09:08.396Z,11.77
2023-01-17T18:11:39.532Z,11.73
2023-01-17T18:14:12.873Z,10.85
2023-01-17T18:16:43.951Z,15.88
2023-01-17T18:19:19.654Z,12.82
2023-01-17T18:21:48.554Z,12.98
2023-01-17T18:24:19.750Z,12.20
2023-01-17T18:26:55.922Z,11.75
2023-01-17T18:29:26.016Z,13.65
2023-01-17T18:31:55.048Z,16.10
2023-01-17T18:34:29.044Z,11.52
2023-01-17T18:36:57.792Z,13.43
2023-01-17T18:39:29.154Z,12.80
2023-01-17T18:41:56.616Z,15.32
2023-01-17T18:44:24.014Z,16.10
2023-01-17T18:46:54.481Z,18.75
2023-01-17T18:49:22.030Z,12.05
2023-01-17T18:51:51.055Z,13.45
2023-01-17T18:54:20.493Z,18.95
2023-01-17T18:56:48.244Z,16.00
2023-01-17T18:59:18.440Z,16.25
2023-01-17T19:01:46.511Z,13.73
2023-01-17T19:04:17.323Z,13.05
2023-01-17T19:06:47.905Z,18.10
2023-01-17T19:09:17.003Z,13.88
2023-01-17T19:11:45.394Z,14.75
2023-01-17T19:14:14.428Z,11.90
2023-01-17T19:16:42.953Z,16.13
2023-01-17T19:19:15.079Z,15.70
2023-01-17T19:21:43.232Z,15.85
2023-01-17T19:24:13.021Z,13.32
2023-01-17T19:26:41.581Z,14.70
2023-01-17T19:29:08.841Z,16.95
2023-01-17T19:31:42.467Z,12.60
2023-01-17T19:34:10.824Z,13.88
2023-01-17T19:36:39.154Z,11.57
2023-01-17T19:39:11.885Z,9.50
2023-01-17T19:41:45.287Z,11.43
2023-01-17T19:44:15.049Z,12.00
2023-01-17T19:46:44.622Z,12.10
2023-01-17T19:49:11.854Z,11.68
2023-01-17T19:51:39.736Z,11.85
2023-01-17T19:54:08.216Z,12.35
2023-01-17T19:56:35.621Z,11.63
2023-01-17T19:59:02.839Z,11.18
2023-01-17T20:01:33.883Z,13.73
2023-01-17T20:04:03.255Z,10.73
2023-01-17T20:06:35.657Z,11.23
2023-01-17T20:09:05.980Z,10.85
2023-01-17T20:11:34.523Z,12.98
2023-01-17T20:14:02.398Z,17.05
2023-01-17T20:16:32.220Z,15.38
2023-01-17T20:19:02.254Z,13.55
2023-01-17T20:21:31.289Z,15.32
2023-01-17T20:24:03.008Z,15.20
2023-01-17T20:26:34.928Z,16.85
2023-01-17T20:29:11.285Z,13.75
2023-01-17T20:31:40.994Z,13.10
2023-01-17T20:34:11.664Z,13.07
2023-01-17T20:36:41.660Z,10.25
2023-01-17T20:39:11.401Z,14.48
2023-01-17T20:41:42.368Z,15.55
2023-01-17T20:44:15.425Z,15.43
2023-01-17T20:46:43.765Z,12.90
2023-01-17T20:49:18.754Z,14.15
2023-01-17T20:51:47.326Z,16.17
2023-01-17T20:54:18.503Z,16.85
2023-01-17T20:56:47.779Z,15.07
2023-01-17T20:59:21.545Z,13.50
2023-01-17T21:01:49.831Z,14.13
2023-01-17T21:04:23.784Z,13.55
2023-01-17T21:06:52.821Z,13.68
2023-01-17T21:09:21.313Z,11.63
2023-01-17T21:11:49.176Z,12.63
2023-01-17T21:14:16.453Z,13.02
2023-01-17T21:16:44.656Z,17.35
2023-01-17T21:19:14.997Z,18.50
2023-01-17T21:21:42.332Z,19.38
2023-01-17T21:24:09.610Z,20.17
2023-01-17T21:26:38.870Z,15.18
2023-01-17T21:29:07.010Z,20.08
2023-01-17T21:31:35.554Z,22.00
2023-01-17T21:34:08.028Z,18.08
2023-01-17T21:36:41.042Z,15.95
2023-01-17T21:39:16.074Z,15.10
2023-01-17T21:41:47.898Z,19.65
2023-01-17T21:44:21.808Z,20.08
2023-01-17T21:46:54.178Z,18.65
2023-01-17T21:49:23.418Z,16.52
2023-01-17T21:51:53.527Z,17.60
2023-01-17T21:54:44.051Z,20.05
2023-01-17T21:57:33.173Z,13.05
2023-01-17T22:00:00.460Z,13.95
2023-01-17T22:02:27.796Z,16.33
2023-01-17T22:04:56.153Z,15.40
2023-01-17T22:07:26.899Z,15.68
2023-01-17T22:09:54.524Z,14.77
2023-01-17T22:12:21.662Z,19.02
2023-01-17T22:14:48.805Z,15.90
2023-01-17T22:17:15.933Z,15.68
2023-01-17T22:19:43.137Z,15.15
2023-01-17T22:22:10.330Z,13.77
2023-01-17T22:24:37.667Z,12.38
2023-01-17T22:27:04.966Z,16.20
2023-01-17T22:29:33.950Z,15.32
2023-01-17T22:32:01.150Z,15.45
2023-01-17T22:34:28.282Z,15.82
2023-01-17T22:36:55.491Z,15.85
2023-01-17T22:39:22.824Z,15.52
2023-01-17T22:41:49.969Z,13.65
2023-01-17T22:44:17.192Z,18.05
2023-01-17T22:46:44.425Z,17.95
2023-01-17T22:49:13.947Z,17.35
2023-01-17T22:51:41.682Z,21.05
2023-01-17T22:54:09.110Z,20.50
2023-01-17T22:56:36.491Z,20.85
2023-01-17T22:59:03.909Z,21.35
2023-01-17T23:01:32.881Z,24.58
2023-01-17T23:04:04.371Z,26.08
2023-01-17T23:06:38.707Z,19.58
2023-01-17T23:09:14.599Z,18.48
2023-01-17T23:11:55.045Z,28.05
2023-01-17T23:14:25.600Z,24.77
2023-01-17T23:17:17.732Z,25.05
2023-01-17T23:19:54.783Z,27.55
2023-01-17T23:22:29.005Z,30.95
2023-01-17T23:25:13.431Z,31.35
2023-01-17T23:28:03.804Z,28.73
2023-01-17T23:30:42.884Z,28.10
2023-01-17T23:33:16.596Z,32.92
2023-01-17T23:35:46.317Z,31.85
2023-01-17T23:38:26.419Z,33.60
2023-01-17T23:41:19.471Z,28.00
2023-01-17T23:43:56.598Z,35.92
2023-01-17T23:46:26.491Z,44.00
2023-01-17T23:48:54.973Z,49.15
2023-01-17T23:51:22.489Z,47.08
2023-01-17T23:53:52.087Z,47.58
2023-01-17T23:56:24.588Z,44.08
2023-01-17T23:58:51.812Z,47.38
